Time;durP1;ratioP1;P1;durP2;ratioP2;P2;SDS_P1;SDS_P2;PMS_P1;PMS_P2;Temp;Humidity;BMP_temperature;BMP_pressure;BME280_temperature;BME280_humidity;BME280_pressure;Samples;Min_cycle;Max_cycle;Signal;HPM_P1;HPM_P2
2021/09/21 00:02:20;;;;;;;11.10;7.42;;;;;;;9.01;67.58;101746.63;1663855;84;20928;-81
2021/09/21 00:04:47;;;;;;;11.83;7.60;;;;;;;9.03;67.62;101744.92;1665688;84;20922;-81
2021/09/21 00:07:13;;;;;;;16.25;8.38;;;;;;;9.04;67.63;101740.62;1673112;84;20894;-81
2021/09/21 00:09:39;;;;;;;11.30;7.25;;;;;;;9.06;67.67;101744.09;1665098;84;20902;-81
2021/09/21 00:12:06;;;;;;;12.85;7.95;;;;;;;9.06;67.73;101739.80;1643712;85;21046;-81
2021/09/21 00:14:32;;;;;;;11.93;8.18;;;;;;;9.08;67.74;101736.80;1636274;85;25060;-81
2021/09/21 00:17:02;;;;;;;16.07;7.87;;;;;;;9.09;67.75;101736.38;1639498;86;20958;-81
2021/09/21 00:19:31;;;;;;;9.20;7.33;;;;;;;9.07;67.76;101735.50;1665239;84;20965;-81
2021/09/21 00:21:56;;;;;;;10.98;7.47;;;;;;;9.06;67.82;101735.92;1671805;84;20925;-81
2021/09/21 00:24:22;;;;;;;12.23;7.25;;;;;;;9.06;67.87;101734.63;1674532;84;20973;-81
2021/09/21 00:26:48;;;;;;;12.85;7.03;;;;;;;9.07;67.86;101728.63;1644174;85;20982;-81
2021/09/21 00:29:14;;;;;;;11.25;7.85;;;;;;;9.04;67.89;101733.75;1635581;86;20931;-81
2021/09/21 00:31:42;;;;;;;11.70;7.08;;;;;;;9.01;67.90;101731.58;1660159;84;20985;-81
2021/09/21 00:34:11;;;;;;;8.78;6.65;;;;;;;8.95;67.84;101743.99;1669471;84;21128;-81
2021/09/21 00:36:40;;;;;;;10.38;6.85;;;;;;;8.86;67.91;101736.17;1663927;84;21917;-81
2021/09/21 00:39:11;;;;;;;9.00;6.75;;;;;;;8.84;68.08;101727.55;1671039;84;21085;-81
2021/09/21 00:41:41;;;;;;;10.23;6.70;;;;;;;8.85;68.09;101738.31;1678877;84;20924;-81
2021/09/21 00:44:08;;;;;;;9.50;5.95;;;;;;;8.84;68.13;101736.58;1664137;84;20945;-81
2021/09/21 00:46:35;;;;;;;9.25;6.08;;;;;;;8.83;68.15;101737.47;1669617;84;20950;-81
2021/09/21 00:49:01;;;;;;;;;;;;;;;8.80;68.12;101739.59;1669225;84;20971;-81
2021/09/21 00:51:28;;;;;;;6.10;5.03;;;;;;;8.77;68.53;101739.56;1672864;84;20165;-81
2021/09/21 00:53:55;;;;;;;8.08;5.75;;;;;;;8.72;68.19;101731.34;1670484;84;20913;-81
2021/09/21 00:56:21;;;;;;;9.93;5.90;;;;;;;8.65;68.19;101735.58;1672396;84;21654;-80
2021/09/21 00:58:49;;;;;;;7.87;5.87;;;;;;;8.59;68.21;101727.78;1672987;84;36047;-80
2021/09/21 01:01:15;;;;;;;11.83;6.33;;;;;;;8.53;68.24;101732.45;1671973;84;20926;-80
2021/09/21 01:03:41;;;;;;;7.42;5.35;;;;;;;8.48;68.25;101732.82;1645535;85;20997;-80
2021/09/21 01:06:08;;;;;;;7.22;5.58;;;;;;;8.40;68.26;101734.87;1633237;86;20942;-80
2021/09/21 01:08:34;;;;;;;12.28;4.87;;;;;;;8.34;68.29;101734.80;1619970;86;20960;-80
2021/09/21 01:11:01;;;;;;;9.38;5.60;;;;;;;8.25;68.24;101736.43;1631121;86;20978;-80
2021/09/21 01:13:28;;;;;;;9.80;6.33;;;;;;;8.19;68.28;101736.78;1654114;84;20938;-80
2021/09/21 01:15:54;;;;;;;13.60;6.08;;;;;;;8.13;68.38;101734.13;1666300;84;21575;-80
2021/09/21 01:18:21;;;;;;;9.53;6.12;;;;;;;8.09;68.43;101736.23;1667931;84;20981;-80
2021/09/21 01:20:47;;;;;;;6.47;5.50;;;;;;;8.04;68.49;101737.45;1670523;84;20917;-80
2021/09/21 01:23:14;;;;;;;8.53;6.03;;;;;;;7.98;68.44;101742.53;1630638;86;20997;-80
2021/09/21 01:25:40;;;;;;;7.50;5.47;;;;;;;7.91;68.53;101737.72;1627046;85;20954;-80
2021/09/21 01:28:08;;;;;;;7.62;5.62;;;;;;;7.85;68.51;101744.08;1636738;85;20923;-80
2021/09/21 01:30:34;;;;;;;7.70;4.92;;;;;;;7.79;68.54;101733.73;1644369;85;21005;-80
2021/09/21 01:33:02;;;;;;;7.33;5.20;;;;;;;7.71;68.51;101728.91;1648515;86;20961;-80
2021/09/21 01:35:34;;;;;;;5.25;4.58;;;;;;;7.64;68.52;101734.81;1641074;85;21016;-80
2021/09/21 01:38:01;;;;;;;5.90;4.78;;;;;;;7.55;68.51;101723.09;1667420;84;20882;-80
2021/09/21 01:40:28;;;;;;;6.03;5.37;;;;;;;7.49;68.56;101725.16;1643411;85;20989;-80
2021/09/21 01:42:56;;;;;;;13.25;5.08;;;;;;;7.41;68.54;101729.75;1639245;86;20978;-80
2021/09/21 01:45:22;;;;;;;11.05;4.78;;;;;;;7.33;68.60;101733.49;1646306;85;21500;-80
2021/09/21 01:47:49;;;;;;;6.75;5.03;;;;;;;7.28;68.61;101733.42;1631818;86;21064;-80
2021/09/21 01:50:21;;;;;;;8.23;5.62;;;;;;;7.22;68.67;101737.64;1629260;85;21072;-80
2021/09/21 01:52:56;;;;;;;6.47;5.50;;;;;;;7.17;68.71;101738.84;1665195;84;21093;-80
2021/09/21 02:01:00;;;;;;;6.42;5.80;;;;;;;7.06;68.94;101749.38;1663805;84;21108;-80
2021/09/21 02:03:26;;;;;;;10.48;5.60;;;;;;;7.05;69.00;101750.64;1642315;85;21124;-81
2021/09/21 02:05:53;;;;;;;7.58;5.62;;;;;;;7.05;69.04;101748.07;1649040;85;21064;-80
2021/09/21 02:08:20;;;;;;;7.75;5.50;;;;;;;7.06;69.11;101749.38;1663401;84;22430;-80
2021/09/21 02:10:46;;;;;;;;;;;;;;;7.08;69.14;101747.70;1670099;84;21530;-80
2021/09/21 02:13:12;;;;;;;5.60;4.50;;;;;;;7.09;69.48;101753.29;1668981;84;20209;-81
2021/09/21 02:15:39;;;;;;;6.55;5.28;;;;;;;7.07;69.13;101747.25;1668524;84;21109;-80
2021/09/21 02:18:07;;;;;;;7.45;5.67;;;;;;;7.07;69.11;101755.39;1669946;84;21081;-80
2021/09/21 02:20:33;;;;;;;5.87;5.28;;;;;;;7.07;69.21;101749.83;1666201;84;21085;-80
2021/09/21 02:22:59;;;;;;;8.15;5.42;;;;;;;7.09;69.26;101750.72;1662758;84;21089;-80
2021/09/21 02:25:26;;;;;;;8.33;5.10;;;;;;;7.12;69.28;101750.77;1658426;84;21057;-80
2021/09/21 02:27:52;;;;;;;6.97;5.58;;;;;;;7.12;69.28;101746.91;1669777;84;21133;-80
2021/09/21 02:30:18;;;;;;;9.98;5.35;;;;;;;7.12;69.28;101750.77;1669831;84;21708;-80
2021/09/21 02:32:46;;;;;;;7.15;4.95;;;;;;;7.11;69.28;101751.61;1658323;84;21018;-80
2021/09/21 02:35:13;;;;;;;9.28;5.10;;;;;;;7.13;69.34;101757.64;1656744;84;21125;-80
2021/09/21 02:37:39;;;;;;;5.92;5.28;;;;;;;7.10;69.33;101754.16;1666849;84;21096;-80
2021/09/21 02:40:08;;;;;;;8.95;5.50;;;;;;;7.08;69.34;101755.84;1640907;85;21095;-80
2021/09/21 02:42:34;;;;;;;7.35;5.53;;;;;;;7.07;69.45;101753.69;1641249;86;21088;-80
2021/09/21 02:45:01;;;;;;;6.87;4.90;;;;;;;7.09;69.50;101758.44;1636051;86;25273;-80
2021/09/21 02:47:28;;;;;;;8.78;5.10;;;;;;;7.09;69.44;101761.00;1640648;86;21088;-80
2021/09/21 02:49:54;;;;;;;6.00;5.17;;;;;;;7.07;69.46;101758.83;1630600;86;21099;-80
2021/09/21 02:52:20;;;;;;;8.10;4.35;;;;;;;7.06;69.53;101758.38;1631368;86;21144;-80
2021/09/21 02:54:47;;;;;;;6.75;5.10;;;;;;;7.04;69.47;101762.63;1646299;85;21081;-80
2021/09/21 02:57:13;;;;;;;9.33;4.87;;;;;;;7.00;69.48;101761.27;1655045;85;21086;-80
2021/09/21 02:59:41;;;;;;;6.80;6.10;;;;;;;6.96;69.61;101766.36;1654665;85;21081;-80
2021/09/21 03:02:08;;;;;;;8.80;6.62;;;;;;;6.95;69.62;101762.05;1646329;85;21247;-80
2021/09/21 03:04:38;;;;;;;6.50;5.55;;;;;;;6.94;69.71;101761.61;1647979;85;152880;-80
2021/09/21 03:07:12;;;;;;;6.67;5.50;;;;;;;6.97;69.79;101769.80;1607154;87;21133;-80
2021/09/21 03:12:25;;;;;;;7.12;6.00;;;;;;;7.02;69.83;101760.45;1651235;85;20919;-80
2021/09/21 03:17:34;;;;;;;6.37;5.60;;;;;;;7.07;69.90;101760.11;1641663;85;20955;-80
2021/09/21 03:20:02;;;;;;;8.43;5.20;;;;;;;7.09;69.94;101761.00;1639888;85;20963;-80
2021/09/21 03:22:29;;;;;;;7.67;5.10;;;;;;;7.09;69.92;101757.15;1657024;85;20899;-80
2021/09/21 03:24:56;;;;;;;6.97;5.37;;;;;;;7.11;69.98;101760.61;1654235;85;20934;-80
2021/09/21 03:27:23;;;;;;;9.10;5.17;;;;;;;7.15;70.04;101762.81;1653913;85;20925;-80
2021/09/21 03:29:49;;;;;;;;;;;;;;;7.16;70.03;101767.98;1654292;85;21550;-80
2021/09/21 03:32:25;;;;;;;5.80;4.58;;;;;;;7.18;70.37;101765.44;1650831;85;20088;-80
2021/09/21 03:34:50;;;;;;;8.65;4.87;;;;;;;7.17;70.09;101767.56;1658092;84;21368;-80
2021/09/21 03:37:17;;;;;;;8.03;5.60;;;;;;;7.16;70.08;101767.98;1657156;85;21884;-80
2021/09/21 03:39:44;;;;;;;;;;;;;;;7.16;70.16;101771.84;1639294;85;20935;-80
2021/09/21 03:42:12;;;;;;;8.05;4.72;;;;;;;7.17;70.57;101767.56;1643440;85;20124;-80
2021/09/21 03:44:39;;;;;;;5.50;5.00;;;;;;;7.19;70.26;101768.03;1657109;85;20955;-80
2021/09/21 03:47:07;;;;;;;6.15;5.33;;;;;;;7.20;70.28;101770.19;1648817;85;20958;-80
2021/09/21 03:49:33;;;;;;;7.90;5.37;;;;;;;7.21;70.27;101766.77;1652225;85;20888;-81
2021/09/21 03:51:59;;;;;;;6.25;5.45;;;;;;;7.20;70.28;101768.90;1639871;85;20974;-81
2021/09/21 03:54:28;;;;;;;7.45;5.58;;;;;;;7.20;70.31;101772.34;1669931;84;20926;-81
2021/09/21 03:56:54;;;;;;;6.85;5.28;;;;;;;7.19;70.32;101772.31;1666082;84;20929;-81
2021/09/21 03:59:22;;;;;;;6.25;5.28;;;;;;;7.19;70.38;101770.61;1665401;84;20942;-81
2021/09/21 04:01:48;;;;;;;6.20;5.60;;;;;;;7.18;70.34;101771.45;1645373;85;20929;-81
2021/09/21 04:04:15;;;;;;;7.25;5.20;;;;;;;7.16;70.32;101774.83;1649701;85;20981;-81
2021/09/21 04:06:41;;;;;;;7.08;5.55;;;;;;;7.15;70.40;101770.53;1668254;84;20947;-81
2021/09/21 04:09:08;;;;;;;8.35;6.10;;;;;;;7.14;70.46;101772.23;1673610;84;20921;-81
2021/09/21 04:11:35;;;;;;;8.85;5.87;;;;;;;7.16;70.49;101774.41;1677637;84;20942;-81
2021/09/21 04:14:01;;;;;;;8.08;5.40;;;;;;;7.15;70.48;101773.97;1636571;85;21111;-80
2021/09/21 04:16:30;;;;;;;9.68;6.25;;;;;;;7.16;70.52;101778.69;1667303;84;21137;-80
2021/09/21 04:18:59;;;;;;;7.15;6.03;;;;;;;7.14;70.54;101773.94;1666594;84;21033;-80
2021/09/21 04:21:26;;;;;;;6.85;5.42;;;;;;;7.15;70.57;101778.25;1639598;85;21045;-80
2021/09/21 04:23:53;;;;;;;6.53;5.92;;;;;;;7.17;70.64;101780.42;1673320;84;21703;-80
2021/09/21 04:26:19;;;;;;;;;;;;;;;7.20;70.66;101780.47;1680654;84;21076;-80
2021/09/21 04:28:46;;;;;;;6.12;5.12;;;;;;;7.21;70.97;101780.50;1687492;84;20209;-80
2021/09/21 04:31:22;;;;;;;6.20;5.30;;;;;;;7.23;70.72;101778.82;1641704;85;21177;-80
2021/09/21 04:33:48;;;;;;;7.60;4.97;;;;;;;7.24;70.73;101780.55;1619987;87;20953;-80
2021/09/21 04:36:29;;;;;;;7.20;5.35;;;;;;;7.26;70.72;101782.73;1673078;84;20925;-80
2021/09/21 04:38:55;;;;;;;7.62;5.17;;;;;;;7.26;70.75;101781.86;1675476;84;21544;-81
2021/09/21 04:41:21;;;;;;;7.35;5.92;;;;;;;7.27;70.81;101790.89;1675913;84;20922;-82
2021/09/21 04:43:48;;;;;;;7.72;6.05;;;;;;;7.30;70.89;101788.76;1654962;85;20981;-82
2021/09/21 04:46:14;;;;;;;8.40;5.75;;;;;;;7.33;70.89;101784.08;1640913;85;21533;-82
2021/09/21 04:48:40;;;;;;;7.37;5.58;;;;;;;7.33;70.88;101774.66;1647876;85;20938;-82
2021/09/21 04:51:07;;;;;;;6.92;5.78;;;;;;;7.35;70.94;101781.11;1674185;84;20922;-82
2021/09/21 04:53:33;;;;;;;;;;;;;;;7.37;70.97;101786.73;1651462;85;20979;-82
2021/09/21 04:56:00;;;;;;;7.55;6.47;;;;;;;7.42;71.30;101786.80;1650618;85;20090;-82
2021/09/21 04:58:26;;;;;;;12.33;8.03;;;;;;;7.43;71.06;101784.25;1649200;85;20927;-82
2021/09/21 05:00:54;;;;;;;7.62;6.75;;;;;;;7.45;71.04;101786.85;1647937;85;20868;-82
2021/09/21 05:03:21;;;;;;;8.98;6.80;;;;;;;7.48;71.15;101788.19;1666248;84;20918;-82
2021/09/21 05:05:47;;;;;;;7.75;6.95;;;;;;;7.52;71.16;101784.82;1611205;87;21012;-83
2021/09/21 05:08:13;;;;;;;7.75;6.85;;;;;;;7.57;71.21;101786.63;1645129;85;20911;-83
2021/09/21 05:10:40;;;;;;;8.40;6.92;;;;;;;7.64;71.24;101796.17;1646627;85;20971;-83
2021/09/21 05:13:06;;;;;;;8.65;7.37;;;;;;;7.70;71.26;101798.39;1642328;85;20939;-83
2021/09/21 05:15:33;;;;;;;11.73;8.45;;;;;;;7.75;71.26;101798.91;1643082;85;20927;-83
2021/09/21 05:17:59;;;;;;;8.93;7.78;;;;;;;7.79;71.27;101789.52;1610640;87;21002;-83
2021/09/21 05:20:25;;;;;;;7.20;6.50;;;;;;;7.83;71.32;101791.25;1656554;85;20983;-83
2021/09/21 05:22:53;;;;;;;10.78;7.83;;;;;;;7.87;71.34;101792.61;1618723;86;550978;-83
2021/09/21 05:25:21;;;;;;;10.13;8.83;;;;;;;7.92;71.37;101790.96;1650856;85;20958;-83
2021/09/21 05:27:48;;;;;;;15.83;10.58;;;;;;;7.95;71.35;101791.42;1650127;85;20927;-83
2021/09/21 05:30:14;;;;;;;17.12;9.38;;;;;;;8.00;71.45;101788.91;1651253;85;20962;-83
2021/09/21 05:32:41;;;;;;;12.50;10.25;;;;;;;8.07;71.50;101798.03;1613012;87;20983;-82
2021/09/21 05:35:09;;;;;;;16.45;9.85;;;;;;;8.15;71.58;101792.98;1618811;87;20931;-82
2021/09/21 05:37:35;;;;;;;13.40;9.15;;;;;;;8.23;71.59;101793.94;1647767;85;20985;-82
2021/09/21 05:40:02;;;;;;;12.35;10.28;;;;;;;8.32;71.62;101794.48;1638364;85;20887;-82
2021/09/21 05:42:28;;;;;;;13.83;10.05;;;;;;;8.41;71.65;101791.59;1646149;85;20935;-82
2021/09/21 05:44:54;;;;;;;15.78;11.20;;;;;;;8.47;71.64;101790.38;1607926;87;21615;-81
2021/09/21 05:47:21;;;;;;;14.30;11.30;;;;;;;8.54;71.65;101799.91;1644303;85;21080;-81
2021/09/21 05:49:47;;;;;;;18.90;12.15;;;;;;;8.62;71.66;101811.60;1611918;87;21105;-81
2021/09/21 05:52:13;;;;;;;64.97;27.60;;;;;;;8.67;71.71;101810.36;1611475;87;21035;-81
2021/09/21 05:54:40;;;;;;;44.73;21.40;;;;;;;8.75;71.75;101813.89;1656441;84;21049;-81
2021/09/21 05:57:07;;;;;;;49.55;19.92;;;;;;;8.82;71.80;101813.98;1666025;84;21129;-81
2021/09/21 05:59:33;;;;;;;34.65;17.35;;;;;;;8.92;71.84;101822.64;1665381;84;21058;-81
2021/09/21 06:01:59;;;;;;;49.45;20.08;;;;;;;9.02;71.92;101820.59;1660547;84;21112;-81
2021/09/21 06:04:26;;;;;;;54.98;24.67;;;;;;;9.14;71.98;101826.30;1638904;85;21086;-81
2021/09/21 06:06:52;;;;;;;47.93;22.60;;;;;;;9.27;71.99;101829.44;1632897;85;21115;-81
2021/09/21 06:09:18;;;;;;;43.63;21.45;;;;;;;9.41;72.05;101839.84;1632646;86;21118;-81
2021/09/21 06:11:45;;;;;;;36.00;18.70;;;;;;;9.53;72.06;101842.10;1631260;85;21084;-81
2021/09/21 06:14:11;;;;;;;28.27;15.03;;;;;;;9.65;72.11;101845.20;1632659;86;21101;-81
2021/09/21 06:16:37;;;;;;;17.75;11.73;;;;;;;9.78;72.10;101848.75;1666699;84;20969;-81
2021/09/21 06:19:04;;;;;;;13.75;10.10;;;;;;;9.88;72.07;101848.80;1662737;84;21084;-81
2021/09/21 06:21:30;;;;;;;11.53;9.48;;;;;;;9.99;72.15;101846.28;1670726;84;21095;-81
2021/09/21 06:23:58;;;;;;;11.78;9.20;;;;;;;10.09;72.17;101842.03;1660629;84;21064;-81
2021/09/21 06:26:24;;;;;;;11.53;9.45;;;;;;;10.20;72.22;101845.14;1658201;84;215482;-81
2021/09/21 06:28:50;;;;;;;9.53;8.55;;;;;;;10.32;72.24;101852.53;1631709;86;21112;-81
2021/09/21 06:31:20;;;;;;;10.80;8.25;;;;;;;10.43;72.25;101855.56;1637053;86;21132;-81
2021/09/21 06:33:46;;;;;;;12.50;8.98;;;;;;;10.59;72.33;101852.62;1634093;85;21282;-81
2021/09/21 06:36:13;;;;;;;18.77;8.88;;;;;;;10.77;72.32;101853.98;1639276;85;21072;-81
2021/09/21 06:38:45;;;;;;;9.73;8.63;;;;;;;10.96;72.28;101858.75;1608144;87;21134;-81
2021/09/21 06:41:11;;;;;;;9.58;8.63;;;;;;;11.15;72.39;101854.47;1665280;84;21041;-81
2021/09/21 06:43:38;;;;;;;13.65;9.50;;;;;;;11.32;72.28;101861.83;1634354;86;21202;-81
2021/09/21 06:46:11;;;;;;;9.65;8.65;;;;;;;11.45;72.34;101860.95;1638385;86;21051;-81
2021/09/21 06:48:40;;;;;;;9.93;8.68;;;;;;;11.56;72.28;101860.95;1638471;85;21120;-81
2021/09/21 06:51:08;;;;;;;9.88;8.88;;;;;;;11.63;72.23;101865.27;1656909;84;21064;-81
2021/09/21 06:53:35;;;;;;;11.55;9.78;;;;;;;11.72;72.26;101857.49;1634158;86;21139;-81
2021/09/21 06:56:02;;;;;;;9.98;8.93;;;;;;;11.91;72.37;101864.85;1626107;85;419921;-81
2021/09/21 06:58:30;;;;;;;8.38;7.53;;;;;;;12.20;72.34;101863.03;1630940;86;21043;-81
2021/09/21 07:00:56;;;;;;;10.10;9.05;;;;;;;12.39;72.28;101867.73;1637719;85;21096;-81
2021/09/21 07:03:22;;;;;;;10.88;8.13;;;;;;;12.54;72.34;101871.54;1675968;84;21044;-81
2021/09/21 07:05:50;;;;;;;11.63;7.72;;;;;;;13.00;72.49;101871.30;1637316;86;20985;-81
2021/09/21 07:08:18;;;;;;;10.32;7.90;;;;;;;13.53;72.54;101870.06;1637186;86;20918;-81
2021/09/21 07:10:44;;;;;;;8.83;7.37;;;;;;;14.04;72.54;101872.61;1637302;85;20989;-81
2021/09/21 07:13:14;;;;;;;7.62;6.67;;;;;;;14.52;72.37;101875.59;1669438;84;20906;-81
2021/09/21 07:15:40;;;;;;;7.33;6.53;;;;;;;14.72;72.21;101874.87;1662226;84;20930;-81
2021/09/21 07:18:06;;;;;;;6.62;6.12;;;;;;;14.79;72.04;101881.72;1660727;84;20988;-81
2021/09/21 07:20:33;;;;;;;6.95;6.30;;;;;;;14.83;71.96;101882.54;1670035;84;20891;-81
2021/09/21 07:22:59;;;;;;;6.75;6.05;;;;;;;14.85;72.03;101882.94;1661494;84;21050;-82
2021/09/21 07:25:28;;;;;;;7.40;6.67;;;;;;;14.92;72.05;101881.12;1668336;84;20988;-82
2021/09/21 07:27:54;;;;;;;6.30;5.70;;;;;;;14.91;71.92;101884.60;1638846;86;21145;-81
2021/09/21 07:30:20;;;;;;;6.75;6.00;;;;;;;14.90;71.86;101882.88;1637466;86;21108;-81
2021/09/21 07:32:50;;;;;;;6.78;6.08;;;;;;;14.88;71.80;101878.99;1670331;84;21041;-81
2021/09/21 07:35:17;;;;;;;7.37;6.60;;;;;;;14.88;71.77;101884.20;1664167;84;21085;-81
2021/09/21 07:37:43;;;;;;;8.18;6.40;;;;;;;14.92;71.72;101883.72;1664415;84;21128;-81
2021/09/21 07:40:11;;;;;;;6.20;5.60;;;;;;;14.91;71.67;101880.70;1666695;84;21062;-81
2021/09/21 07:42:38;;;;;;;6.90;5.97;;;;;;;14.92;71.62;101885.46;1674518;84;21069;-81
2021/09/21 07:45:07;;;;;;;10.32;6.78;;;;;;;14.93;71.56;101883.28;1642129;85;26510;-81
2021/09/21 07:47:34;;;;;;;6.65;6.05;;;;;;;14.87;71.46;101881.17;1642196;86;21071;-81
2021/09/21 07:50:04;;;;;;;6.60;5.90;;;;;;;14.86;71.34;101886.41;1639375;86;21137;-81
2021/09/21 07:52:30;;;;;;;6.42;5.45;;;;;;;14.80;71.25;101883.88;1639365;85;21057;-81
2021/09/21 07:54:58;;;;;;;5.85;5.35;;;;;;;14.78;71.25;101883.04;1659704;84;21069;-81
2021/09/21 07:57:26;;;;;;;6.85;5.50;;;;;;;14.72;71.15;101874.87;1642549;85;21090;-81
2021/09/21 07:59:53;;;;;;;7.22;5.55;;;;;;;14.72;71.14;101881.81;1650928;85;20917;-81
2021/09/21 08:02:19;;;;;;;5.97;5.45;;;;;;;14.73;71.07;101879.63;1610641;87;20963;-82
2021/09/21 08:04:46;;;;;;;5.75;5.35;;;;;;;14.74;71.00;101875.70;1650674;85;21030;-82
2021/09/21 08:07:12;;;;;;;5.78;5.05;;;;;;;14.87;70.97;101881.62;1614799;87;21089;-81
2021/09/21 08:09:39;;;;;;;7.85;5.00;;;;;;;15.09;71.08;101886.06;1653002;85;21074;-81
2021/09/21 08:12:07;;;;;;;5.72;5.20;;;;;;;15.23;70.86;101894.09;1643320;85;21030;-81
2021/09/21 08:14:37;;;;;;;5.50;4.92;;;;;;;15.34;70.79;101898.29;1652899;85;20986;-81
2021/09/21 08:17:01;;;;;;;6.90;5.25;;;;;;;15.41;70.65;101894.70;1650466;85;21128;-81
2021/09/21 08:19:28;;;;;;;10.88;5.55;;;;;;;15.37;70.44;101899.55;1649798;85;21082;-81
2021/09/21 08:21:55;;;;;;;14.20;4.60;;;;;;;15.29;70.34;101897.05;1642544;85;21046;-81
2021/09/21 08:24:21;;;;;;;9.78;5.90;;;;;;;15.18;70.23;101898.52;1615539;86;21061;-81
2021/09/21 08:26:47;;;;;;;6.08;4.78;;;;;;;15.04;70.04;101896.58;1613220;87;21656;-81
2021/09/21 08:29:14;;;;;;;5.37;4.08;;;;;;;14.95;70.04;101898.44;1647211;85;21102;-81
2021/09/21 08:31:41;;;;;;;4.80;4.40;;;;;;;14.91;70.01;101893.72;1646611;85;21056;-81
2021/09/21 08:34:07;;;;;;;6.55;4.85;;;;;;;14.84;69.92;101895.54;1643275;85;21086;-81
2021/09/21 08:36:36;;;;;;;5.78;5.17;;;;;;;14.84;69.90;101893.38;1646748;85;21089;-82
2021/09/21 08:39:05;;;;;;;6.67;6.08;;;;;;;14.87;69.90;101890.73;1646973;85;21142;-82
2021/09/21 08:41:33;;;;;;;6.40;5.45;;;;;;;14.91;69.76;101893.72;1624582;85;21122;-82
2021/09/21 08:44:00;;;;;;;4.78;4.37;;;;;;;14.94;69.69;101894.98;1645310;85;21063;-81
2021/09/21 08:46:27;;;;;;;5.40;4.90;;;;;;;14.90;69.58;101894.16;1648872;85;21037;-81
2021/09/21 08:48:54;;;;;;;5.25;4.85;;;;;;;14.90;69.52;101891.55;1640167;85;21107;-81
2021/09/21 08:51:20;;;;;;;5.90;5.15;;;;;;;14.90;69.45;101899.37;1643913;85;21047;-81
2021/09/21 08:53:47;;;;;;;5.37;4.65;;;;;;;14.92;69.34;101899.34;1646438;85;21498;-81
2021/09/21 08:56:14;;;;;;;7.17;5.40;;;;;;;14.90;69.23;101900.67;1645383;85;21106;-81
2021/09/21 08:58:40;;;;;;;5.65;5.03;;;;;;;14.89;69.19;101903.30;1646034;85;21661;-81
2021/09/21 09:01:15;;;;;;;7.10;6.50;;;;;;;14.89;69.12;101894.18;1608458;87;21030;-81
2021/09/21 09:03:55;;;;;;;6.70;6.08;;;;;;;14.93;69.08;101893.70;1651540;85;20975;-82
2021/09/21 09:06:23;;;;;;;8.08;6.05;;;;;;;14.97;68.98;101896.24;1653322;85;20939;-82
2021/09/21 09:08:50;;;;;;;;;;;;;;;14.99;68.88;101895.78;1643156;85;20950;-82
2021/09/21 09:11:23;;;;;;;;;;;;;;;15.04;68.31;101894.41;1651747;85;20163;-82
2021/09/21 09:13:57;;;;;;;11.28;7.83;;;;;;;15.08;68.16;101894.76;1648662;85;20151;-82
2021/09/21 09:16:27;;;;;;;9.03;7.15;;;;;;;15.11;68.66;101886.45;1613512;87;21097;-81
2021/09/21 09:19:04;;;;;;;11.93;6.75;;;;;;;15.18;68.62;101889.39;1660268;85;20939;-81
2021/09/21 09:21:32;;;;;;;;;;;;;;;15.23;68.51;101889.33;1610180;87;21057;-81
2021/09/21 09:24:04;;;;;;;6.50;4.85;;;;;;;15.19;67.69;101887.20;1597851;87;20543;-81
2021/09/21 09:26:34;;;;;;;7.92;4.83;;;;;;;15.14;68.18;101878.59;1604647;87;21081;-81
2021/09/21 09:29:01;;;;;;;4.83;4.42;;;;;;;15.11;68.19;101880.39;1649798;85;21073;-82
2021/09/21 09:31:33;;;;;;;4.50;4.10;;;;;;;15.04;68.10;101877.04;1660159;85;21048;-81
2021/09/21 09:34:27;;;;;;;4.50;4.10;;;;;;;15.04;68.09;101881.39;1637598;85;21085;-81
2021/09/21 09:36:59;;;;;;;4.60;3.75;;;;;;;15.03;67.95;101871.85;1643967;85;21150;-82
2021/09/21 09:39:29;;;;;;;4.70;3.72;;;;;;;15.11;67.99;101876.03;1642589;85;21026;-81
2021/09/21 09:42:13;;;;;;;7.72;4.25;;;;;;;15.17;67.82;101865.53;1638964;85;21463;-81
2021/09/21 09:44:40;;;;;;;5.47;4.08;;;;;;;15.19;67.67;101866.36;1641571;85;21112;-81
2021/09/21 09:47:07;;;;;;;4.40;4.00;;;;;;;15.22;67.57;101867.63;1642735;85;21077;-81
2021/09/21 09:49:42;;;;;;;5.67;4.70;;;;;;;15.18;67.50;101871.16;1640337;85;20998;-82
2021/09/21 09:52:12;;;;;;;4.53;3.85;;;;;;;15.20;67.55;101869.39;1638893;85;21053;-82
2021/09/21 09:54:41;;;;;;;4.55;3.95;;;;;;;15.29;67.52;101874.05;1614159;85;21029;-82
2021/09/21 09:57:10;;;;;;;4.50;4.08;;;;;;;15.37;67.53;101863.92;1640343;85;21348;-82
2021/09/21 09:59:38;;;;;;;6.22;4.10;;;;;;;15.47;67.41;101867.24;1652135;85;20940;-82
2021/09/21 10:02:06;;;;;;;5.05;3.42;;;;;;;15.52;67.24;101869.33;1643897;85;21188;-82
2021/09/21 10:04:32;;;;;;;3.33;3.02;;;;;;;15.59;67.16;101868.38;1644016;85;20929;-82
2021/09/21 10:06:59;;;;;;;3.62;3.33;;;;;;;15.65;67.09;101860.87;1638132;85;21433;-82
2021/09/21 10:09:29;;;;;;;3.52;3.22;;;;;;;15.70;66.92;101858.59;1643682;85;20901;-81
2021/09/21 10:11:58;;;;;;;3.55;3.17;;;;;;;15.79;66.99;101851.06;1643929;85;21490;-81
2021/09/21 10:14:25;;;;;;;3.70;2.72;;;;;;;15.83;66.73;101850.98;1646276;85;20961;-81
2021/09/21 10:17:05;;;;;;;3.12;2.92;;;;;;;15.83;66.65;101854.03;1649131;85;20955;-81
2021/09/21 10:19:35;;;;;;;9.33;3.00;;;;;;;15.82;66.52;101853.61;1668674;84;20914;-81
2021/09/21 10:22:01;;;;;;;3.10;2.83;;;;;;;15.75;66.35;101849.39;1677550;84;20929;-81
2021/09/21 10:24:44;;;;;;;3.70;3.10;;;;;;;15.66;66.19;101853.46;1663671;83;503481;-81
2021/09/21 10:27:15;;;;;;;5.37;2.93;;;;;;;15.57;66.23;101849.73;1678906;84;20989;-81
2021/09/21 10:30:01;;;;;;;3.65;3.27;;;;;;;15.52;66.47;101850.64;1650903;85;21628;-81
2021/09/21 10:32:27;;;;;;;2.95;2.75;;;;;;;15.50;66.14;101863.28;1628681;86;21106;-81
2021/09/21 10:34:58;;;;;;;3.87;3.00;;;;;;;15.50;66.07;101860.23;1650021;85;22587;-81
2021/09/21 10:37:23;;;;;;;3.08;2.85;;;;;;;15.52;65.96;101868.03;1671908;84;21005;-81
2021/09/21 10:40:02;;;;;;;3.10;2.87;;;;;;;15.52;65.85;101860.20;1672303;84;20977;-81
2021/09/21 10:42:28;;;;;;;3.30;3.00;;;;;;;15.52;65.79;101871.94;1672351;84;21664;-81
2021/09/21 10:45:01;;;;;;;3.90;2.87;;;;;;;15.55;65.75;101864.93;1675348;84;20997;-81
2021/09/21 10:47:31;;;;;;;3.37;3.12;;;;;;;15.59;65.62;101871.44;1641501;85;20997;-81
2021/09/21 10:50:17;;;;;;;3.00;2.80;;;;;;;15.62;65.64;101865.69;1649399;85;21146;-81
2021/09/21 10:52:46;;;;;;;3.25;2.95;;;;;;;15.65;65.50;101872.16;1646722;85;20965;-81
2021/09/21 10:55:17;;;;;;;3.25;2.50;;;;;;;15.73;65.49;101872.03;1642241;85;21556;-81
2021/09/21 10:57:47;;;;;;;2.85;2.65;;;;;;;15.78;65.31;101871.06;1622765;86;20927;-81
2021/09/21 11:00:20;;;;;;;3.25;3.05;;;;;;;15.80;65.20;101870.59;1651988;85;20891;-81
2021/09/21 11:02:53;;;;;;;2.76;2.56;;;;;;;15.84;65.18;101876.62;1566172;85;9999926;-82
2021/09/21 11:05:26;;;;;;;3.40;3.10;;;;;;;15.86;65.02;101876.14;1584920;88;20993;-82
2021/09/21 11:08:02;;;;;;;5.75;2.87;;;;;;;15.86;64.94;101882.22;1645924;85;21831;-82
2021/09/21 11:10:33;;;;;;;4.03;3.07;;;;;;;15.86;64.86;101885.28;1649572;85;20899;-82
2021/09/21 11:13:08;;;;;;;2.92;2.72;;;;;;;15.83;64.79;101878.36;1654796;84;20959;-81
2021/09/21 11:15:35;;;;;;;3.50;2.98;;;;;;;15.79;64.72;101875.39;1581374;85;5000703;-81
2021/09/21 11:18:11;;;;;;;4.60;3.00;;;;;;;15.75;64.64;101881.55;1657796;85;26779;-81
2021/09/21 11:20:55;;;;;;;3.42;3.22;;;;;;;15.69;64.61;101884.70;1640881;85;21392;-81
2021/09/21 11:23:24;;;;;;;3.77;2.75;;;;;;;15.66;64.53;101886.05;1650761;85;21803;-82
2021/09/21 11:25:53;;;;;;;3.27;3.02;;;;;;;15.64;64.48;101891.73;1647358;85;21293;-81
2021/09/21 11:28:20;;;;;;;5.40;3.07;;;;;;;15.64;64.46;101883.92;1530667;85;9999918;-82
2021/09/21 11:30:47;;;;;;;3.47;3.17;;;;;;;15.64;64.35;101879.56;1653421;85;21405;-82
2021/09/21 11:33:20;;;;;;;3.02;2.77;;;;;;;15.68;64.40;101876.46;1652847;85;20944;-82
2021/09/21 11:35:53;;;;;;;3.65;2.90;;;;;;;15.75;64.33;101872.86;1616298;87;20975;-82
2021/09/21 11:38:20;;;;;;;3.30;3.00;;;;;;;15.76;64.13;101878.05;1655608;85;20927;-81
2021/09/21 11:40:49;;;;;;;4.10;2.98;;;;;;;15.77;64.10;101881.08;1648732;85;20958;-81
2021/09/21 11:43:15;;;;;;;3.30;2.98;;;;;;;15.77;64.02;101871.09;1644156;85;21450;-81
2021/09/21 11:45:46;;;;;;;3.83;3.02;;;;;;;15.73;63.95;101870.72;1649082;85;20958;-81